White Point — IBAE — position and weather

sailwx.info

Track history (hours):
 
Tides and Currents Weather Stations Pressure Air Temp Water Temp Dewpoint Dewpoint Depression Visibility Wind Speed Wind Dir Waves Ship Positions

White Point

Last reported at 2015-Aug-26 18:23 UTC. Time now 2015-Aug-28 00:22 UTC.
Position N 38°11' E 016°32'.

Length 183 m; draft 1.1 m.

Type: Ship (hazmat cat D). MMSI: 247087400.

Date/timePositionNaut miles runAvg speedWind from/ knotsBaromVisibWave heightAir tempDewpointWater temp
2015-Aug-26 18:23N 38°11' E 016°32'3113.9
2015-Aug-26 16:08N 37°52' E 016°01'1014.3
2015-Aug-26 15:26N 37°52' E 015°49'1213.2
2015-Aug-26 14:33N 37°58' E 015°36'1413.9
2015-Aug-26 13:33N 38°12' E 015°35'8 7.5
2015-Aug-26 12:33N 38°20' E 015°34'1413.7
2015-Aug-26 11:33N 38°15' E 015°18'2 2.2
2015-Aug-26 10:32N 38°13' E 015°15'1 0.8
2015-Aug-26 09:32N 38°13' E 015°16'0 0.0
2015-Aug-26 08:32N 38°13' E 015°16'0 0.0
2015-Aug-26 07:32N 38°13' E 015°16'0 0.0
2015-Aug-26 06:32N 38°13' E 015°16'0 0.0
2015-Aug-26 05:32N 38°13' E 015°16'0 0.0
2015-Aug-26 04:32N 38°13' E 015°16'0 0.0
2015-Aug-26 03:32N 38°13' E 015°16'0 0.0
2015-Aug-26 02:32N 38°13' E 015°16'0 0.0
2015-Aug-26 01:32N 38°13' E 015°16'0 0.0
2015-Aug-26 00:32N 38°13' E 015°16'0 0.0
2015-Aug-25 23:32N 38°13' E 015°16'0 0.0
2015-Aug-25 22:32N 38°13' E 015°16'0 0.0
2015-Aug-25 21:32N 38°13' E 015°16'0 0.0
2015-Aug-25 20:32N 38°13' E 015°16'0 0.0
2015-Aug-25 19:32N 38°13' E 015°16'0 0.0
2015-Aug-25 18:32N 38°13' E 015°16'0 0.0
2015-Aug-25 17:32N 38°13' E 015°16'0 0.0
2015-Aug-25 16:32N 38°13' E 015°16'0 0.0
2015-Aug-25 15:32N 38°13' E 015°16'0 0.0
2015-Aug-25 14:32N 38°13' E 015°16'0 0.0
2015-Aug-25 13:32N 38°13' E 015°16'0 0.0
2015-Aug-25 12:32N 38°13' E 015°16'0 0.2
2015-Aug-25 11:33N 38°13' E 015°16'1 1.3
2015-Aug-25 10:33N 38°13' E 015°18'0 0.0
2015-Aug-25 09:33N 38°13' E 015°18'0 0.0
2015-Aug-25 08:33N 38°13' E 015°18'0 0.1
2015-Aug-25 07:33N 38°13' E 015°18'0 0.1
2015-Aug-25 06:33N 38°13' E 015°17'0 0.0
2015-Aug-25 05:33N 38°13' E 015°17'0 0.0
2015-Aug-25 04:33N 38°13' E 015°18'0 0.0
2015-Aug-25 03:33N 38°13' E 015°18'0 0.1
2015-Aug-25 02:33N 38°13' E 015°18'0 0.0
2015-Aug-25 01:33N 38°13' E 015°18'0 0.0
2015-Aug-25 00:33N 38°13' E 015°18'0 0.0
2015-Aug-24 23:33N 38°13' E 015°18'0 0.0
2015-Aug-24 22:33N 38°13' E 015°18'0 0.0
2015-Aug-24 21:33N 38°13' E 015°18'0 0.0
2015-Aug-24 20:33N 38°13' E 015°18'0 0.0
2015-Aug-24 19:33N 38°13' E 015°18'0 0.0
2015-Aug-24 18:33N 38°13' E 015°18'0 0.1
2015-Aug-24 17:33N 38°13' E 015°18'0 0.0
2015-Aug-24 16:33N 38°13' E 015°18'0 0.0
2015-Aug-24 15:33N 38°13' E 015°18'0 0.1
2015-Aug-24 14:33N 38°13' E 015°17'0 0.0
2015-Aug-24 13:33N 38°13' E 015°17'0 0.0
2015-Aug-24 12:33N 38°13' E 015°18'0 0.0
2015-Aug-24 11:33N 38°13' E 015°18'0 0.0
2015-Aug-24 10:27N 38°13' E 015°17'0 0.0
2015-Aug-24 09:33N 38°13' E 015°17'0 0.0
2015-Aug-24 08:33N 38°13' E 015°17'0 0.0
2015-Aug-24 07:33N 38°13' E 015°17'0 0.1
2015-Aug-24 06:33N 38°13' E 015°17'0 0.0
2015-Aug-24 05:33N 38°13' E 015°17'0 0.0
2015-Aug-24 04:27N 38°13' E 015°17'0 0.0
2015-Aug-24 03:33N 38°13' E 015°17'0 0.0
2015-Aug-24 02:33N 38°13' E 015°18'0 0.0
2015-Aug-24 01:33N 38°13' E 015°18'0 0.0
2015-Aug-24 00:33N 38°13' E 015°18'0 0.0
2015-Aug-23 23:33N 38°13' E 015°18'0 0.0
2015-Aug-23 22:33N 38°13' E 015°18'0 0.1
2015-Aug-23 21:33N 38°13' E 015°18'0 0.0
2015-Aug-23 20:33N 38°13' E 015°18'0 0.1
2015-Aug-23 19:33N 38°13' E 015°17'0 0.1
2015-Aug-23 18:33N 38°13' E 015°17'0 0.0
2015-Aug-23 17:33N 38°13' E 015°17'0 0.0
2015-Aug-23 16:27N 38°13' E 015°17'0 0.0
2015-Aug-23 15:33N 38°13' E 015°17'0 0.0
2015-Aug-23 14:33N 38°13' E 015°17'0 0.0
2015-Aug-23 13:33N 38°13' E 015°17'0 0.0
2015-Aug-23 12:33N 38°13' E 015°17'0 0.0
2015-Aug-23 11:33N 38°13' E 015°17'0 0.0
2015-Aug-23 10:33N 38°13' E 015°18'0 0.0
2015-Aug-23 09:27N 38°13' E 015°18'0 0.0
2015-Aug-23 08:33N 38°13' E 015°18'0 0.0
2015-Aug-23 07:33N 38°13' E 015°18'0 0.1
2015-Aug-23 06:30N 38°13' E 015°17'  
2015-Aug-19 07:27N 38°14' E 015°18'1 0.1
2015-Aug-18 17:28N 38°14' E 015°19'  
Track history (hours):
 
Tides and Currents Weather Stations Pressure Air Temp Water Temp Dewpoint Dewpoint Depression Visibility Wind Speed Wind Dir Waves Ship Positions

White Point

Last reported at 2015-Aug-26 18:23 UTC. Time now 2015-Aug-28 00:22 UTC.
Position N 38°11' E 016°32'.

Length 183 m; draft 1.1 m.

Type: Ship (hazmat cat D). MMSI: 247087400.

Date/timePositionNaut miles runAvg speedWind from/ knotsBaromVisibWave heightAir tempDewpointWater temp
2015-Aug-26 18:23N 38°11' E 016°32'3113.9
2015-Aug-26 16:08N 37°52' E 016°01'1014.3
2015-Aug-26 15:26N 37°52' E 015°49'1213.2
2015-Aug-26 14:33N 37°58' E 015°36'1413.9
2015-Aug-26 13:33N 38°12' E 015°35'8 7.5
2015-Aug-26 12:33N 38°20' E 015°34'1413.7
2015-Aug-26 11:33N 38°15' E 015°18'2 2.2
2015-Aug-26 10:32N 38°13' E 015°15'1 0.8
2015-Aug-26 09:32N 38°13' E 015°16'0 0.0
2015-Aug-26 08:32N 38°13' E 015°16'0 0.0
2015-Aug-26 07:32N 38°13' E 015°16'0 0.0
2015-Aug-26 06:32N 38°13' E 015°16'0 0.0
2015-Aug-26 05:32N 38°13' E 015°16'0 0.0
2015-Aug-26 04:32N 38°13' E 015°16'0 0.0
2015-Aug-26 03:32N 38°13' E 015°16'0 0.0
2015-Aug-26 02:32N 38°13' E 015°16'0 0.0
2015-Aug-26 01:32N 38°13' E 015°16'0 0.0
2015-Aug-26 00:32N 38°13' E 015°16'0 0.0
2015-Aug-25 23:32N 38°13' E 015°16'0 0.0
2015-Aug-25 22:32N 38°13' E 015°16'0 0.0
2015-Aug-25 21:32N 38°13' E 015°16'0 0.0
2015-Aug-25 20:32N 38°13' E 015°16'0 0.0
2015-Aug-25 19:32N 38°13' E 015°16'0 0.0
2015-Aug-25 18:32N 38°13' E 015°16'0 0.0
2015-Aug-25 17:32N 38°13' E 015°16'0 0.0
2015-Aug-25 16:32N 38°13' E 015°16'0 0.0
2015-Aug-25 15:32N 38°13' E 015°16'0 0.0
2015-Aug-25 14:32N 38°13' E 015°16'0 0.0
2015-Aug-25 13:32N 38°13' E 015°16'0 0.0
2015-Aug-25 12:32N 38°13' E 015°16'0 0.2
2015-Aug-25 11:33N 38°13' E 015°16'1 1.3
2015-Aug-25 10:33N 38°13' E 015°18'0 0.0
2015-Aug-25 09:33N 38°13' E 015°18'0 0.0
2015-Aug-25 08:33N 38°13' E 015°18'0 0.1
2015-Aug-25 07:33N 38°13' E 015°18'0 0.1
2015-Aug-25 06:33N 38°13' E 015°17'0 0.0
2015-Aug-25 05:33N 38°13' E 015°17'0 0.0
2015-Aug-25 04:33N 38°13' E 015°18'0 0.0
2015-Aug-25 03:33N 38°13' E 015°18'0 0.1
2015-Aug-25 02:33N 38°13' E 015°18'0 0.0
2015-Aug-25 01:33N 38°13' E 015°18'0 0.0
2015-Aug-25 00:33N 38°13' E 015°18'0 0.0
2015-Aug-24 23:33N 38°13' E 015°18'0 0.0
2015-Aug-24 22:33N 38°13' E 015°18'0 0.0
2015-Aug-24 21:33N 38°13' E 015°18'0 0.0
2015-Aug-24 20:33N 38°13' E 015°18'0 0.0
2015-Aug-24 19:33N 38°13' E 015°18'0 0.0
2015-Aug-24 18:33N 38°13' E 015°18'0 0.1
2015-Aug-24 17:33N 38°13' E 015°18'0 0.0
2015-Aug-24 16:33N 38°13' E 015°18'0 0.0
2015-Aug-24 15:33N 38°13' E 015°18'0 0.1
2015-Aug-24 14:33N 38°13' E 015°17'0 0.0
2015-Aug-24 13:33N 38°13' E 015°17'0 0.0
2015-Aug-24 12:33N 38°13' E 015°18'0 0.0
2015-Aug-24 11:33N 38°13' E 015°18'0 0.0
2015-Aug-24 10:27N 38°13' E 015°17'0 0.0
2015-Aug-24 09:33N 38°13' E 015°17'0 0.0
2015-Aug-24 08:33N 38°13' E 015°17'0 0.0
2015-Aug-24 07:33N 38°13' E 015°17'0 0.1
2015-Aug-24 06:33N 38°13' E 015°17'0 0.0
2015-Aug-24 05:33N 38°13' E 015°17'0 0.0
2015-Aug-24 04:27N 38°13' E 015°17'0 0.0
2015-Aug-24 03:33N 38°13' E 015°17'0 0.0
2015-Aug-24 02:33N 38°13' E 015°18'0 0.0
2015-Aug-24 01:33N 38°13' E 015°18'0 0.0
2015-Aug-24 00:33N 38°13' E 015°18'0 0.0
2015-Aug-23 23:33N 38°13' E 015°18'0 0.0
2015-Aug-23 22:33N 38°13' E 015°18'0 0.1
2015-Aug-23 21:33N 38°13' E 015°18'0 0.0
2015-Aug-23 20:33N 38°13' E 015°18'0 0.1
2015-Aug-23 19:33N 38°13' E 015°17'0 0.1
2015-Aug-23 18:33N 38°13' E 015°17'0 0.0
2015-Aug-23 17:33N 38°13' E 015°17'0 0.0
2015-Aug-23 16:27N 38°13' E 015°17'0 0.0
2015-Aug-23 15:33N 38°13' E 015°17'0 0.0
2015-Aug-23 14:33N 38°13' E 015°17'0 0.0
2015-Aug-23 13:33N 38°13' E 015°17'0 0.0
2015-Aug-23 12:33N 38°13' E 015°17'0 0.0
2015-Aug-23 11:33N 38°13' E 015°17'0 0.0
2015-Aug-23 10:33N 38°13' E 015°18'0 0.0
2015-Aug-23 09:27N 38°13' E 015°18'0 0.0
2015-Aug-23 08:33N 38°13' E 015°18'0 0.0
2015-Aug-23 07:33N 38°13' E 015°18'0 0.1
2015-Aug-23 06:30N 38°13' E 015°17'  
2015-Aug-19 07:27N 38°14' E 015°18'1 0.1
2015-Aug-18 17:28N 38°14' E 015°19'  

Dump ship's entire track history